Wofford Heights, CA (93285)

7:18 AM PDT on September 22, 2014 (GMT -0700)
KERN PH | Change Station
CLOSE
Current Station
Personal Weather Station
Location: Kernville, CA
Elevation: 3185 ft
Nearby Weather Stations

Elev 3185 ft 35.78 °N, 118.43 °W | Updated 31 minutes ago

Clear
Clear
66.0 °F
Feels Like 66.0 °F
N
2.0
Wind Variable Wind from NE

Today
High -- | Low -- °F
--% Chance of Precip.
Yesterday
High -- | Low -- °F
Precip. -- in
6:41 AM 6:50 PM
Waning Crescent, 3% visible
Pressure 30.13 in
Visibility 10.0 miles
Clouds Clear
Dew Point 44 °F
Humidity 45%
Rainfall -999.00 in
Snow Depth 1 in , 1 in , 0 in
UV 0 out of 12
Pollen 6.80 out of 12
PM2.5 Good
Flu Activity Not available.
METAR KTSP 221355Z AUTO 12004KT 10SM CLR 10/07 A3013 RMK AO2

More Conditions Fewer Conditions

Pressure 30.13 in
Visibility 10.0 miles
Clouds Clear
Dew Point 44 °F
Humidity 45%
Rainfall -999.00 in
Snow Depth 1 in , 1 in , 0 in
UV 0 out of 12
Pollen 6.80 out of 12
PM2.5 Good
Flu Activity Not available.
METAR KTSP 221355Z AUTO 12004KT 10SM CLR 10/07 A3013 RMK AO2

More Conditions Fewer Conditions

10-Day Weather Forecast

Almanac

Astronomy

Sep. 22, 2014 Rise Set
Actual Time 6:41 AM PDT 6:50 PM PDT
Civil Twilight 6:16 AM PDT 7:16 PM PDT
Nautical Twilight 5:46 AM PDT 7:45 PM PDT
Astronomical Twilight 5:16 AM PDT 8:15 PM PDT
Moon 5:17 AM PDT 5:59 PM PDT
Length of Visible Light 12h 59m
Length of Day
12h 08m
Tomorrow will be 2m 14s shorter.
Waning Crescent, 3% of the Moon is Illuminated
Today
Waning Crescent
Sep 24
New
Oct 1
First Quarter
Oct 8
Full
Oct 15
Last Quarter

Today's Extremes

State Highs State Lows

Community

WunderPhotos

Upload Photos

1,755,444 photos uploaded!

WunderBlogs® & News

By Dr. Jeff Masters
Director of Meteorology, Weather Underground
By Kari Strenfel
Meteorologist, Weather Underground
By Christopher C. Burt
Weather Historian, Weather Underground
September 22, 2014
September 22, 2014
September 22, 2014

Nearby

Air Quality

  Air Quality AQ Index Pollutant
Yesterday Good
OZONE
Yesterday Good
PM2.5
Current Good
PM2.5
Monday Moderate
OZONE
Tuesday Moderate
OZONE
Wednesday Moderate
OZONE
Thursday Moderate
OZONE
Friday Moderate
OZONE

Snow Depth

Station Depth Elevation
Summit Meadow 1 in 9122 ft
Spratt Creek 1 in 6200 ft
Sonora Pass 0 in 8800 ft
Fallen Leaf 0 in 6300 ft
Crowder Flat 0 in 5100 ft

Earthquake Activity

City Distance Mag. Time & Date
Inyokern, California 41 miles 3.1 5:33 PM PDT
2014-09-19
Corcoran, California 70 miles 2.9 3:59 PM PDT
2014-09-18
Minimum magnitude displayed is 2.5.

Coastal Water Temperatures

Place Temperature
No Stations Reporting

Nearby Weather Stations